Pagrindinis puslapis
METAR-TAF:

METAR-TAF

Oro uostai :

Kerdla, Estija

platuma: 58-59N, ilguma: 022-49E, Aukštis: 5 m

Dabartinis oras

Ataskaita buvo paskelbta 5 valandos ir 53 minutes, ne 07:50 UTC
Vėjas 8 kt iš Šiaurės/Šiaurės Vakarų
Temperatūra 0°C
Drėgmė 74%
Slėgis 1007 hPa
Matomumas 10 km arba daugiau
Išsisklaidę debesys ne aukštis 4300 ft

METAR: EEKA 200750Z 33008KT 9999 SCT043 00/M04 Q1007

Laikas: 16:43 (13:43 UTC)

Prognozė

Ataskaita buvo paskelbta 9 valandos ir 43 minutes, ne 04:00 UTC
Prognozė galioja nuo 20 metu 05 UTC su 20 metu 11 UTC
Vėjas 10 kt iš Šiaurės Vakarų
Matomumas 10 km arba daugiau
Su prošvaistėmis ne aukštis 2000 ft
Laikinai
nuo 20 metu 05 UTC su 20 metu 11 UTC
Matomumas: 1500 m
Su prošvaistėmis ne aukštis 800 ft
Išsisklaidę debesys ne aukštis 1500 ft, Liūtiniai kamuoliniai debesys.
sniegas,

TAF: EEKA 200400Z 2005/2011 32010KT 9999 BKN020 TEMPO 2005/2011 1500 SHSN BKN008 SCT015CB

Orai ataskaitas ir orų prognozės (METAR, TAF).

turimą stotys yra geltonos ir raudonos taškus žemėlapyje.

Perkelti pele per norėdami pamatyti stoties vardą.

Tada spustelėkite, norėdami matyti oro stebėjimo ir prognozės.

Norėdami pakeisti žemėlapį: spustelėkite ant žalios mygtukų su juodo kryžiaus žemyn,; žalią mygtuką su brūkšneliu, jei norite nutolinti; arba žalių rodyklių gretimoms žemėlapius.


METAR-TAF: